createdAt,value
2017-11-13T00:01:08.082Z,78.60
2017-11-13T00:03:35.662Z,78.60
2017-11-13T00:06:03.197Z,78.60
2017-11-13T00:08:30.780Z,78.60
2017-11-13T00:10:58.318Z,78.60
2017-11-13T00:13:25.893Z,78.60
2017-11-13T00:15:53.434Z,78.60
2017-11-13T00:18:20.982Z,78.60
2017-11-13T00:20:48.563Z,78.80
2017-11-13T00:23:16.102Z,78.80
2017-11-13T00:25:44.449Z,78.60
2017-11-13T00:28:11.987Z,78.60
2017-11-13T00:30:39.569Z,78.50
2017-11-13T00:33:07.105Z,78.50
2017-11-13T00:35:34.677Z,78.50
2017-11-13T00:38:02.214Z,78.50
2017-11-13T00:40:29.794Z,78.50
2017-11-13T00:42:57.332Z,78.40
2017-11-13T00:45:24.906Z,78.50
2017-11-13T00:47:52.445Z,78.40
2017-11-13T00:50:20.028Z,78.40
2017-11-13T00:52:47.569Z,78.50
2017-11-13T00:55:15.147Z,78.50
2017-11-13T00:57:42.685Z,78.50
2017-11-13T01:00:10.222Z,78.30
2017-11-13T01:02:37.796Z,78.40
2017-11-13T01:05:05.342Z,78.30
2017-11-13T01:07:32.914Z,78.40
2017-11-13T01:10:00.497Z,78.30
2017-11-13T01:12:28.062Z,78.30
2017-11-13T01:14:55.598Z,78.30
2017-11-13T01:17:23.234Z,78.30
2017-11-13T01:19:50.807Z,78.30
2017-11-13T01:22:18.379Z,78.20
2017-11-13T01:24:45.923Z,78.20
2017-11-13T01:27:13.504Z,78.30
2017-11-13T01:29:41.072Z,78.20
2017-11-13T01:32:08.656Z,78.10
2017-11-13T01:34:36.189Z,78.00
2017-11-13T01:37:03.771Z,78.20
2017-11-13T01:39:31.312Z,78.20
2017-11-13T01:41:58.901Z,78.20
2017-11-13T01:44:26.446Z,78.10
2017-11-13T01:46:54.041Z,78.20
2017-11-13T01:49:22.354Z,78.20
2017-11-13T01:51:49.934Z,78.20
2017-11-13T01:54:17.469Z,78.20
2017-11-13T01:56:45.043Z,78.20
2017-11-13T01:59:12.582Z,78.20
2017-11-13T02:01:40.155Z,78.10
2017-11-13T02:04:07.724Z,78.20
2017-11-13T02:06:35.313Z,78.30
2017-11-13T02:09:03.614Z,78.50
2017-11-13T02:11:31.958Z,78.50
2017-11-13T02:13:59.494Z,78.50
2017-11-13T02:16:27.066Z,78.40
2017-11-13T02:18:54.600Z,78.40
2017-11-13T02:21:22.176Z,78.40
2017-11-13T02:23:49.715Z,78.50
2017-11-13T02:26:17.291Z,78.60
2017-11-13T02:28:44.834Z,78.50
2017-11-13T02:31:12.416Z,78.50
2017-11-13T02:33:39.980Z,78.50
2017-11-13T02:36:07.549Z,78.50
2017-11-13T02:38:35.199Z,78.50
2017-11-13T02:41:02.747Z,78.50
2017-11-13T02:43:30.327Z,78.50
2017-11-13T02:45:57.862Z,78.60
2017-11-13T02:48:25.440Z,78.50
2017-11-13T02:50:53.022Z,78.50
2017-11-13T02:53:20.559Z,78.50
2017-11-13T02:55:48.102Z,78.60
2017-11-13T02:58:15.680Z,78.60
2017-11-13T03:00:43.251Z,78.60
2017-11-13T03:03:10.790Z,78.60
2017-11-13T03:05:38.361Z,78.60
2017-11-13T03:08:05.894Z,78.50
2017-11-13T03:10:33.469Z,78.60
2017-11-13T03:13:01.005Z,78.60
2017-11-13T03:15:28.594Z,78.60
2017-11-13T03:17:56.130Z,78.60
2017-11-13T03:20:23.702Z,78.60
2017-11-13T03:22:51.240Z,78.50
2017-11-13T03:25:19.573Z,78.60
2017-11-13T03:27:47.110Z,78.60
2017-11-13T03:30:14.660Z,78.70
2017-11-13T03:32:42.237Z,78.70
2017-11-13T03:35:09.770Z,78.70
2017-11-13T03:37:37.347Z,78.60
2017-11-13T03:40:04.884Z,78.60
2017-11-13T03:42:32.467Z,78.60
2017-11-13T03:45:00.000Z,78.70
2017-11-13T03:47:27.688Z,78.70
2017-11-13T03:49:55.232Z,78.60
2017-11-13T03:52:22.771Z,78.60
2017-11-13T03:54:51.108Z,78.70
2017-11-13T03:57:18.682Z,78.70
2017-11-13T03:59:46.222Z,78.70
2017-11-13T04:02:13.758Z,78.70
2017-11-13T04:04:41.337Z,78.70
2017-11-13T04:07:08.882Z,78.70
2017-11-13T04:09:36.462Z,78.80
2017-11-13T04:12:03.989Z,78.80
2017-11-13T04:14:31.556Z,78.80
2017-11-13T04:16:59.102Z,78.80
2017-11-13T04:19:26.674Z,78.80
2017-11-13T04:21:54.212Z,78.80
2017-11-13T04:24:21.819Z,78.80
2017-11-13T04:26:49.363Z,78.90
2017-11-13T04:29:16.897Z,78.90
2017-11-13T04:31:44.479Z,78.90
2017-11-13T04:34:12.019Z,78.80
2017-11-13T04:36:39.593Z,78.80
2017-11-13T04:39:07.125Z,78.90
2017-11-13T04:41:35.463Z,78.80
2017-11-13T04:44:03.003Z,78.90
2017-11-13T04:46:30.578Z,78.80
2017-11-13T04:48:58.107Z,78.80
2017-11-13T04:51:25.695Z,78.90
2017-11-13T04:53:53.236Z,78.90
2017-11-13T04:56:20.774Z,79.00
2017-11-13T04:58:48.352Z,78.90
2017-11-13T05:01:15.921Z,78.80
2017-11-13T05:03:43.502Z,78.90
2017-11-13T05:06:11.044Z,79.00
2017-11-13T05:08:38.621Z,79.00
2017-11-13T05:11:06.149Z,79.00
2017-11-13T05:13:33.727Z,78.90
2017-11-13T05:16:01.277Z,78.90
2017-11-13T05:18:28.866Z,79.00
2017-11-13T05:20:56.406Z,79.00
2017-11-13T05:23:23.944Z,79.00
2017-11-13T05:25:51.525Z,79.00
2017-11-13T05:28:19.071Z,78.90
2017-11-13T05:30:46.645Z,79.00
2017-11-13T05:33:14.188Z,79.00
2017-11-13T05:35:41.761Z,79.10
2017-11-13T05:38:09.302Z,79.00
2017-11-13T05:40:36.883Z,79.10
2017-11-13T05:43:04.417Z,79.10
2017-11-13T05:45:32.002Z,79.00
2017-11-13T05:47:59.540Z,79.10
2017-11-13T05:50:27.122Z,79.10
2017-11-13T05:52:54.677Z,79.10
2017-11-13T05:55:22.246Z,79.10
2017-11-13T05:57:49.788Z,79.10
2017-11-13T06:00:17.366Z,79.00
2017-11-13T06:02:44.908Z,79.00
2017-11-13T06:05:12.483Z,79.10
2017-11-13T06:07:40.025Z,79.00
2017-11-13T06:10:07.607Z,78.90
2017-11-13T06:12:35.148Z,79.10
2017-11-13T06:15:02.734Z,79.10
2017-11-13T06:17:30.280Z,79.20
2017-11-13T06:19:57.861Z,79.10
2017-11-13T06:22:25.402Z,79.10
2017-11-13T06:24:52.939Z,79.20
2017-11-13T06:27:20.525Z,79.20
2017-11-13T06:29:48.094Z,79.20
2017-11-13T06:32:15.687Z,79.20
2017-11-13T06:34:43.998Z,79.30
2017-11-13T06:37:11.579Z,79.20
2017-11-13T06:39:39.117Z,79.20
2017-11-13T06:42:06.696Z,79.20
2017-11-13T06:44:34.243Z,79.20
2017-11-13T06:47:01.823Z,79.20
2017-11-13T06:49:29.362Z,79.30
2017-11-13T06:51:56.949Z,79.30
2017-11-13T06:54:24.491Z,79.30
2017-11-13T06:56:52.079Z,79.40
2017-11-13T06:59:19.627Z,79.20
2017-11-13T07:01:47.205Z,79.30
2017-11-13T07:04:14.744Z,79.20
2017-11-13T07:06:42.339Z,79.20
2017-11-13T07:09:10.645Z,79.30
2017-11-13T07:11:38.236Z,79.30
2017-11-13T07:14:05.788Z,79.40
2017-11-13T07:16:33.334Z,79.40
2017-11-13T07:19:01.098Z,79.40
2017-11-13T07:21:28.641Z,79.40
2017-11-13T07:23:56.730Z,79.40
2017-11-13T07:26:24.305Z,79.50
2017-11-13T07:28:51.949Z,79.60
2017-11-13T07:31:19.831Z,79.60
2017-11-13T07:33:47.580Z,79.70
2017-11-13T07:36:15.236Z,79.60
2017-11-13T07:38:43.121Z,79.70
2017-11-13T07:41:10.701Z,79.80
2017-11-13T07:43:38.312Z,79.80
2017-11-13T07:46:05.884Z,79.70
2017-11-13T07:48:33.468Z,79.70
2017-11-13T07:51:01.006Z,79.60
2017-11-13T07:53:28.587Z,79.70
2017-11-13T07:55:56.131Z,79.70
2017-11-13T07:58:24.443Z,79.80
2017-11-13T08:00:51.983Z,79.80
2017-11-13T08:03:19.568Z,79.80
2017-11-13T08:05:47.109Z,79.80
2017-11-13T08:08:14.698Z,79.70
2017-11-13T08:10:42.242Z,79.70
2017-11-13T08:13:09.868Z,79.80
2017-11-13T08:15:37.455Z,79.70
2017-11-13T08:18:05.004Z,79.80
2017-11-13T08:20:32.585Z,79.90
2017-11-13T08:23:00.131Z,79.80
2017-11-13T08:25:27.709Z,79.90
2017-11-13T08:27:55.263Z,79.90
2017-11-13T08:30:22.843Z,80.70
2017-11-13T08:32:51.149Z,80.00
2017-11-13T08:35:18.730Z,79.90
2017-11-13T08:37:46.274Z,79.90
2017-11-13T08:40:13.847Z,79.90
2017-11-13T08:42:41.404Z,79.90
2017-11-13T08:45:09.000Z,80.00
2017-11-13T08:47:36.557Z,80.00
2017-11-13T08:50:04.162Z,80.00
2017-11-13T08:52:31.738Z,80.00
2017-11-13T08:54:59.283Z,80.00
2017-11-13T08:57:26.855Z,80.00
2017-11-13T08:59:54.403Z,80.00
2017-11-13T09:02:21.992Z,80.00
2017-11-13T09:04:49.529Z,80.00
2017-11-13T09:07:17.120Z,80.00
2017-11-13T09:09:44.765Z,80.10
2017-11-13T09:12:12.350Z,80.10
2017-11-13T09:14:39.939Z,80.10
2017-11-13T09:17:08.245Z,80.00
2017-11-13T09:19:35.926Z,80.00
2017-11-13T09:22:03.475Z,80.00
2017-11-13T09:24:31.051Z,80.00
2017-11-13T09:26:58.625Z,80.00
2017-11-13T09:29:26.164Z,80.00
2017-11-13T09:31:53.705Z,80.00
2017-11-13T09:34:21.281Z,80.00
2017-11-13T09:36:48.843Z,80.00
2017-11-13T09:39:16.413Z,80.00
2017-11-13T09:41:43.952Z,79.90
2017-11-13T09:44:11.523Z,80.00
2017-11-13T09:46:39.058Z,80.00
2017-11-13T09:49:06.629Z,80.00
2017-11-13T09:51:34.164Z,80.00
2017-11-13T09:54:02.590Z,79.90
2017-11-13T09:56:30.122Z,79.90
2017-11-13T09:58:57.697Z,79.90
2017-11-13T10:01:25.236Z,79.90
2017-11-13T10:03:52.842Z,79.90
2017-11-13T10:06:20.387Z,79.90
2017-11-13T10:08:47.936Z,79.80
2017-11-13T10:11:15.511Z,79.90
2017-11-13T10:13:43.050Z,80.00
2017-11-13T10:16:10.622Z,80.00
2017-11-13T10:18:38.222Z,79.90
2017-11-13T10:21:05.763Z,80.00
2017-11-13T10:23:33.311Z,80.80
2017-11-13T10:26:00.892Z,80.00
2017-11-13T10:28:28.440Z,79.90
2017-11-13T10:30:56.024Z,79.90
2017-11-13T10:33:24.329Z,80.00
2017-11-13T10:35:51.904Z,79.90
2017-11-13T10:38:19.440Z,80.00
2017-11-13T10:40:47.777Z,79.50
2017-11-13T10:43:15.314Z,79.50
2017-11-13T10:45:42.887Z,78.90
2017-11-13T10:48:10.426Z,78.40
2017-11-13T10:50:38.040Z,78.40
2017-11-13T10:53:06.351Z,79.00
2017-11-13T10:55:33.890Z,79.00
2017-11-13T10:58:02.227Z,78.80
2017-11-13T11:00:29.818Z,78.80
2017-11-13T11:02:58.130Z,79.80
2017-11-13T11:05:25.664Z,79.80
2017-11-13T11:07:54.006Z,80.00
2017-11-13T11:10:21.594Z,80.00
2017-11-13T11:12:49.929Z,79.90
2017-11-13T11:15:23.245Z,79.90
2017-11-13T11:18:02.557Z,80.00
2017-11-13T11:20:50.960Z,80.10
2017-11-13T11:23:19.273Z,80.10
2017-11-13T11:25:57.568Z,80.00
2017-11-13T11:28:25.115Z,80.20
2017-11-13T11:31:08.499Z,80.20
2017-11-13T11:33:36.641Z,80.10
2017-11-13T11:36:05.816Z,80.00
2017-11-13T11:38:33.361Z,79.70
2017-11-13T11:41:17.389Z,78.40
2017-11-13T11:43:44.921Z,78.40
2017-11-13T11:46:12.462Z,77.80
2017-11-13T11:48:40.506Z,77.60
2017-11-13T11:51:08.057Z,76.70
2017-11-13T11:53:36.393Z,76.60
2017-11-13T11:56:04.568Z,76.60
2017-11-13T11:58:32.139Z,76.50
2017-11-13T12:00:59.691Z,76.70
2017-11-13T12:03:27.270Z,77.10
2017-11-13T12:05:54.814Z,77.50
2017-11-13T12:08:22.401Z,78.50
2017-11-13T12:10:50.710Z,76.20
2017-11-13T12:13:18.288Z,76.20
2017-11-13T12:15:45.825Z,75.40
2017-11-13T12:18:13.410Z,75.00
2017-11-13T12:20:40.949Z,74.20
2017-11-13T12:23:08.530Z,74.00
2017-11-13T12:25:36.073Z,74.40
2017-11-13T12:28:03.656Z,75.40
2017-11-13T12:30:31.215Z,75.90
2017-11-13T12:32:58.794Z,76.30
2017-11-13T12:35:26.347Z,76.80
2017-11-13T12:37:53.972Z,76.70
2017-11-13T12:40:21.511Z,77.20
2017-11-13T12:42:49.053Z,77.30
2017-11-13T12:45:17.403Z,77.70
2017-11-13T12:47:44.942Z,77.70
2017-11-13T12:50:12.556Z,77.90
2017-11-13T12:52:40.119Z,78.20
2017-11-13T12:55:08.504Z,78.70
2017-11-13T12:57:36.064Z,78.60
2017-11-13T13:00:04.412Z,78.60
2017-11-13T13:02:31.965Z,78.50
2017-11-13T13:04:59.570Z,78.50
2017-11-13T13:07:27.117Z,78.60
2017-11-13T13:09:55.457Z,78.00
2017-11-13T13:12:22.993Z,78.00
2017-11-13T13:14:50.566Z,77.70
2017-11-13T13:17:18.107Z,78.00
2017-11-13T13:19:45.681Z,78.20
2017-11-13T13:22:13.217Z,78.30
2017-11-13T13:24:40.795Z,78.40
2017-11-13T13:27:08.346Z,78.20
2017-11-13T13:29:35.930Z,78.30
2017-11-13T13:32:03.470Z,78.20
2017-11-13T13:34:31.050Z,77.80
2017-11-13T13:36:58.594Z,77.70
2017-11-13T13:39:26.187Z,77.50
2017-11-13T13:41:53.731Z,77.50
2017-11-13T13:44:21.286Z,78.20
2017-11-13T13:46:48.863Z,78.00
2017-11-13T13:49:16.406Z,78.00
2017-11-13T13:51:43.974Z,77.90
2017-11-13T13:54:11.514Z,78.00
2017-11-13T13:56:39.099Z,77.90
2017-11-13T13:59:06.737Z,77.80
2017-11-13T14:01:34.334Z,78.00
2017-11-13T14:04:01.887Z,78.00
2017-11-13T14:06:29.492Z,78.30
2017-11-13T14:08:57.074Z,78.00
2017-11-13T14:11:24.669Z,78.00
2017-11-13T14:13:52.213Z,78.00
2017-11-13T14:16:19.749Z,78.00
2017-11-13T14:18:47.331Z,78.00
2017-11-13T14:21:14.887Z,78.00
2017-11-13T14:23:42.473Z,78.20
2017-11-13T14:26:10.019Z,78.00
2017-11-13T14:28:38.386Z,78.20
2017-11-13T14:31:05.932Z,78.20
2017-11-13T14:33:33.521Z,78.10
2017-11-13T14:36:02.586Z,78.30
2017-11-13T14:38:30.165Z,78.30
2017-11-13T14:40:57.706Z,78.40
2017-11-13T14:43:25.273Z,78.30
2017-11-13T14:45:52.813Z,78.30
2017-11-13T14:48:20.396Z,78.30
2017-11-13T14:50:47.941Z,78.30
2017-11-13T14:53:15.531Z,78.30
2017-11-13T14:55:43.076Z,78.30
2017-11-13T14:58:10.652Z,78.30
2017-11-13T15:00:38.198Z,78.40
2017-11-13T15:03:05.950Z,78.30
2017-11-13T15:05:33.493Z,78.20
2017-11-13T15:08:01.176Z,78.20
2017-11-13T15:10:28.718Z,78.20
2017-11-13T15:12:56.300Z,78.10
2017-11-13T15:15:23.835Z,78.10
2017-11-13T15:17:51.407Z,78.10
2017-11-13T15:20:18.947Z,78.00
2017-11-13T15:22:46.530Z,77.90
2017-11-13T15:25:14.072Z,77.90
2017-11-13T15:27:41.648Z,77.90
2017-11-13T15:30:09.190Z,77.80
2017-11-13T15:32:36.772Z,77.80
2017-11-13T15:35:04.326Z,77.90
2017-11-13T15:37:31.908Z,77.80
2017-11-13T15:39:59.452Z,77.90
2017-11-13T15:42:27.026Z,77.80
2017-11-13T15:44:54.565Z,77.70
2017-11-13T15:47:22.137Z,77.70
2017-11-13T15:49:49.676Z,77.70
2017-11-13T15:52:17.251Z,77.70
2017-11-13T15:54:44.799Z,77.60
2017-11-13T15:57:12.370Z,77.70
2017-11-13T15:59:39.951Z,77.70
2017-11-13T16:02:07.588Z,77.60
2017-11-13T16:04:35.128Z,77.60
2017-11-13T16:07:02.704Z,77.50
2017-11-13T16:09:30.245Z,77.50
2017-11-13T16:11:57.821Z,77.50
2017-11-13T16:14:25.362Z,77.60
2017-11-13T16:16:52.936Z,77.50
2017-11-13T16:19:20.481Z,77.50
2017-11-13T16:21:48.171Z,77.30
2017-11-13T16:24:15.714Z,77.50
2017-11-13T16:26:43.295Z,77.40
2017-11-13T16:29:10.854Z,77.30
2017-11-13T16:31:38.430Z,77.30
2017-11-13T16:34:05.981Z,77.30
2017-11-13T16:36:33.565Z,77.20
2017-11-13T16:39:01.103Z,77.30
2017-11-13T16:41:28.678Z,77.40
2017-11-13T16:43:56.222Z,77.50
2017-11-13T16:46:23.798Z,77.40
2017-11-13T16:48:51.351Z,77.50
2017-11-13T16:51:18.898Z,77.50
2017-11-13T16:53:46.470Z,77.50
2017-11-13T16:56:14.023Z,77.50
2017-11-13T16:58:41.792Z,77.50
2017-11-13T17:01:26.319Z,77.40
2017-11-13T17:03:56.289Z,77.40
2017-11-13T17:06:24.688Z,77.30
2017-11-13T17:08:52.293Z,77.20
2017-11-13T17:11:19.836Z,77.10
2017-11-13T17:13:47.424Z,77.20
2017-11-13T17:16:14.970Z,77.20
2017-11-13T17:18:42.550Z,77.30
2017-11-13T17:21:10.096Z,77.10
2017-11-13T17:23:37.661Z,77.10
2017-11-13T17:26:05.206Z,77.00
2017-11-13T17:28:32.778Z,77.10
2017-11-13T17:31:00.323Z,77.10
2017-11-13T17:33:27.889Z,77.20
2017-11-13T17:35:55.426Z,77.20
2017-11-13T17:38:22.997Z,77.10
2017-11-13T17:40:50.533Z,77.20
2017-11-13T17:43:18.104Z,77.20
2017-11-13T17:45:45.647Z,77.20
2017-11-13T17:48:13.241Z,77.20
2017-11-13T17:50:40.777Z,77.20
2017-11-13T17:53:08.361Z,77.20
2017-11-13T17:55:35.909Z,78.00
2017-11-13T17:58:03.491Z,77.10
2017-11-13T18:00:31.030Z,77.20
2017-11-13T18:02:58.612Z,77.20
2017-11-13T18:05:26.155Z,77.20
2017-11-13T18:07:53.741Z,77.30
2017-11-13T18:10:21.294Z,77.20
2017-11-13T18:12:48.874Z,77.20
2017-11-13T18:15:16.418Z,77.20
2017-11-13T18:17:43.998Z,77.30
2017-11-13T18:20:11.543Z,77.20
2017-11-13T18:22:39.446Z,77.30
2017-11-13T18:25:06.997Z,77.20
2017-11-13T18:27:35.403Z,77.10
2017-11-13T18:30:02.947Z,77.10
2017-11-13T18:32:31.287Z,77.00
2017-11-13T18:34:58.830Z,77.00
2017-11-13T18:37:26.409Z,77.00
2017-11-13T18:39:53.952Z,77.00
2017-11-13T18:42:21.526Z,77.00
2017-11-13T18:44:49.114Z,77.00
2017-11-13T18:47:21.466Z,77.00
2017-11-13T18:49:49.453Z,77.00
2017-11-13T18:52:18.155Z,77.00
2017-11-13T18:54:45.706Z,77.00
2017-11-13T18:57:18.052Z,77.10
2017-11-13T18:59:45.626Z,77.00
2017-11-13T19:02:13.962Z,77.30
2017-11-13T19:04:46.221Z,77.20
2017-11-13T19:07:18.712Z,78.10
2017-11-13T19:09:46.246Z,77.20
2017-11-13T19:12:13.834Z,77.30
2017-11-13T19:14:44.376Z,77.30
2017-11-13T19:17:11.910Z,77.30
2017-11-13T19:19:39.480Z,77.40
2017-11-13T19:22:08.455Z,77.50
2017-11-13T19:24:36.025Z,77.50
2017-11-13T19:27:03.560Z,77.50
2017-11-13T19:29:31.138Z,77.50
2017-11-13T19:31:58.676Z,77.60
2017-11-13T19:34:36.336Z,77.50
2017-11-13T19:37:04.568Z,77.60
2017-11-13T19:39:32.142Z,77.50
2017-11-13T19:42:06.734Z,77.60
2017-11-13T19:44:34.310Z,77.60
2017-11-13T19:47:01.859Z,77.60
2017-11-13T19:49:29.436Z,77.70
2017-11-13T19:51:57.835Z,77.70
2017-11-13T19:54:26.826Z,78.50
2017-11-13T19:56:56.313Z,77.90
2017-11-13T19:59:23.890Z,77.90
2017-11-13T20:01:51.425Z,77.90
2017-11-13T20:04:18.999Z,77.90
2017-11-13T20:06:46.530Z,78.00
2017-11-13T20:09:16.780Z,78.10
2017-11-13T20:11:44.312Z,78.10
2017-11-13T20:14:11.880Z,78.10
2017-11-13T20:16:42.106Z,78.20
2017-11-13T20:19:11.416Z,78.20
2017-11-13T20:21:39.882Z,78.30
2017-11-13T20:24:07.460Z,78.20
2017-11-13T20:26:35.016Z,78.20
2017-11-13T20:29:02.595Z,78.20
2017-11-13T20:31:30.129Z,78.20
2017-11-13T20:33:57.864Z,78.20
2017-11-13T20:36:25.414Z,78.20
2017-11-13T20:38:53.761Z,78.30
2017-11-13T20:41:21.398Z,78.30
2017-11-13T20:43:48.975Z,78.20
2017-11-13T20:46:16.511Z,78.20
2017-11-13T20:48:44.086Z,78.30
2017-11-13T20:51:11.617Z,78.20
2017-11-13T20:53:39.186Z,78.10
2017-11-13T20:56:06.720Z,78.10
2017-11-13T20:58:35.062Z,78.10
2017-11-13T21:01:02.603Z,78.00
2017-11-13T21:03:30.185Z,78.00
2017-11-13T21:05:57.728Z,78.00
2017-11-13T21:08:25.304Z,78.10
2017-11-13T21:10:52.852Z,78.10
2017-11-13T21:13:20.438Z,78.80
2017-11-13T21:15:47.978Z,78.00
2017-11-13T21:18:15.554Z,78.00
2017-11-13T21:20:43.102Z,77.90
2017-11-13T21:23:10.710Z,77.90
2017-11-13T21:25:38.250Z,77.90
2017-11-13T21:28:06.593Z,77.90
2017-11-13T21:30:34.128Z,77.80
2017-11-13T21:33:01.790Z,77.80
2017-11-13T21:35:29.322Z,77.80
2017-11-13T21:37:56.892Z,77.80
2017-11-13T21:40:24.430Z,77.70
2017-11-13T21:42:52.759Z,77.70
2017-11-13T21:45:20.300Z,77.70
2017-11-13T21:47:47.879Z,77.70
2017-11-13T21:50:15.414Z,77.60
2017-11-13T21:52:42.985Z,77.50
2017-11-13T21:55:10.527Z,77.50
2017-11-13T21:57:38.103Z,77.50
2017-11-13T22:00:05.642Z,77.40
2017-11-13T22:02:33.222Z,77.40
2017-11-13T22:05:00.767Z,77.30
2017-11-13T22:07:28.302Z,77.30
2017-11-13T22:09:56.637Z,77.20
2017-11-13T22:12:24.174Z,77.20
2017-11-13T22:14:51.737Z,77.10
2017-11-13T22:17:19.271Z,77.10
2017-11-13T22:19:47.611Z,76.90
2017-11-13T22:22:15.153Z,76.90
2017-11-13T22:24:42.730Z,76.90
2017-11-13T22:27:10.270Z,76.90
2017-11-13T22:29:38.148Z,76.80
2017-11-13T22:32:05.690Z,76.70
2017-11-13T22:34:33.274Z,76.80
2017-11-13T22:37:00.818Z,76.80
2017-11-13T22:39:28.461Z,76.70
2017-11-13T22:41:56.004Z,76.60
2017-11-13T22:44:23.576Z,76.70
2017-11-13T22:46:51.123Z,76.60
2017-11-13T22:49:18.696Z,76.50
2017-11-13T22:51:46.230Z,76.60
2017-11-13T22:54:13.814Z,76.50
2017-11-13T22:56:41.354Z,76.40
2017-11-13T22:59:08.943Z,76.30
2017-11-13T23:01:36.482Z,76.20
2017-11-13T23:04:04.061Z,76.30
2017-11-13T23:06:31.602Z,76.30
2017-11-13T23:08:59.181Z,76.30
2017-11-13T23:11:26.719Z,76.30
2017-11-13T23:13:54.298Z,76.40
2017-11-13T23:16:21.846Z,76.40
2017-11-13T23:18:50.196Z,76.50
2017-11-13T23:21:18.493Z,76.50
2017-11-13T23:23:46.063Z,76.50
2017-11-13T23:26:13.598Z,76.40
2017-11-13T23:28:41.173Z,76.40
2017-11-13T23:31:08.735Z,76.40
2017-11-13T23:33:36.309Z,76.40
2017-11-13T23:36:03.849Z,76.50
2017-11-13T23:38:31.424Z,76.40
2017-11-13T23:40:58.958Z,76.40
2017-11-13T23:43:26.540Z,76.50
2017-11-13T23:45:54.081Z,76.50
2017-11-13T23:48:22.421Z,76.50
2017-11-13T23:50:49.961Z,76.50
2017-11-13T23:53:17.543Z,76.50
2017-11-13T23:55:45.085Z,76.50
2017-11-13T23:58:12.661Z,76.40
